sensor_id;sensor_type;location;lat;lon;timestamp;temperature;humidity
5134;DHT22;2585;48.696;10.066;2024-03-08T00:00:11;0.80;83.90
5134;DHT22;2585;48.696;10.066;2024-03-08T00:02:43;0.70;83.60
5134;DHT22;2585;48.696;10.066;2024-03-08T00:05:11;0.70;83.40
5134;DHT22;2585;48.696;10.066;2024-03-08T00:07:44;0.60;82.80
5134;DHT22;2585;48.696;10.066;2024-03-08T00:10:12;0.50;83.30
5134;DHT22;2585;48.696;10.066;2024-03-08T00:12:42;0.50;83.80
5134;DHT22;2585;48.696;10.066;2024-03-08T00:15:10;0.50;84.40
5134;DHT22;2585;48.696;10.066;2024-03-08T00:17:37;0.50;84.60
5134;DHT22;2585;48.696;10.066;2024-03-08T00:20:05;0.50;85.20
5134;DHT22;2585;48.696;10.066;2024-03-08T00:22:35;0.50;85.50
5134;DHT22;2585;48.696;10.066;2024-03-08T00:25:03;0.50;85.30
5134;DHT22;2585;48.696;10.066;2024-03-08T00:27:30;0.50;85.10
5134;DHT22;2585;48.696;10.066;2024-03-08T00:29:58;0.50;84.80
5134;DHT22;2585;48.696;10.066;2024-03-08T00:32:28;0.60;85.00
5134;DHT22;2585;48.696;10.066;2024-03-08T00:34:55;0.60;84.60
5134;DHT22;2585;48.696;10.066;2024-03-08T00:37:22;0.60;84.40
5134;DHT22;2585;48.696;10.066;2024-03-08T00:39:52;0.50;84.10
5134;DHT22;2585;48.696;10.066;2024-03-08T00:42:19;0.50;83.80
5134;DHT22;2585;48.696;10.066;2024-03-08T00:44:47;0.50;84.10
5134;DHT22;2585;48.696;10.066;2024-03-08T00:47:15;0.50;84.30
5134;DHT22;2585;48.696;10.066;2024-03-08T00:49:42;0.50;84.30
5134;DHT22;2585;48.696;10.066;2024-03-08T00:52:09;0.50;83.80
5134;DHT22;2585;48.696;10.066;2024-03-08T00:54:36;0.50;83.40
5134;DHT22;2585;48.696;10.066;2024-03-08T00:57:03;0.50;83.40
5134;DHT22;2585;48.696;10.066;2024-03-08T00:59:31;0.40;83.30
5134;DHT22;2585;48.696;10.066;2024-03-08T01:02:00;0.40;83.40
5134;DHT22;2585;48.696;10.066;2024-03-08T01:04:27;0.50;83.90
5134;DHT22;2585;48.696;10.066;2024-03-08T01:06:58;0.40;84.00
5134;DHT22;2585;48.696;10.066;2024-03-08T01:09:26;0.40;84.20
5134;DHT22;2585;48.696;10.066;2024-03-08T01:11:57;0.40;84.60
5134;DHT22;2585;48.696;10.066;2024-03-08T01:14:24;0.40;85.20
5134;DHT22;2585;48.696;10.066;2024-03-08T01:16:55;0.40;85.30
5134;DHT22;2585;48.696;10.066;2024-03-08T01:19:22;0.30;85.30
5134;DHT22;2585;48.696;10.066;2024-03-08T01:21:50;0.30;85.70
5134;DHT22;2585;48.696;10.066;2024-03-08T01:24:19;0.30;86.10
5134;DHT22;2585;48.696;10.066;2024-03-08T01:26:46;0.40;86.30
5134;DHT22;2585;48.696;10.066;2024-03-08T01:29:14;0.30;86.10
5134;DHT22;2585;48.696;10.066;2024-03-08T01:31:40;0.30;86.30
5134;DHT22;2585;48.696;10.066;2024-03-08T01:34:10;0.30;86.80
5134;DHT22;2585;48.696;10.066;2024-03-08T01:36:37;0.40;87.10
5134;DHT22;2585;48.696;10.066;2024-03-08T01:39:04;0.40;87.00
5134;DHT22;2585;48.696;10.066;2024-03-08T01:41:35;0.40;86.80
5134;DHT22;2585;48.696;10.066;2024-03-08T01:44:03;0.40;86.50
5134;DHT22;2585;48.696;10.066;2024-03-08T01:46:31;0.40;86.20
5134;DHT22;2585;48.696;10.066;2024-03-08T01:48:59;0.40;86.20
5134;DHT22;2585;48.696;10.066;2024-03-08T01:51:28;0.40;86.10
5134;DHT22;2585;48.696;10.066;2024-03-08T01:53:56;0.40;85.90
5134;DHT22;2585;48.696;10.066;2024-03-08T01:56:28;0.40;85.90
5134;DHT22;2585;48.696;10.066;2024-03-08T01:58:55;0.30;85.90
5134;DHT22;2585;48.696;10.066;2024-03-08T02:01:22;0.30;85.80
5134;DHT22;2585;48.696;10.066;2024-03-08T02:03:49;0.30;85.80
5134;DHT22;2585;48.696;10.066;2024-03-08T02:06:16;0.30;85.80
5134;DHT22;2585;48.696;10.066;2024-03-08T02:08:44;0.30;85.80
5134;DHT22;2585;48.696;10.066;2024-03-08T02:11:12;0.30;85.90
5134;DHT22;2585;48.696;10.066;2024-03-08T02:13:42;0.30;86.10
5134;DHT22;2585;48.696;10.066;2024-03-08T02:16:09;0.30;86.10
5134;DHT22;2585;48.696;10.066;2024-03-08T02:18:36;0.20;86.20
5134;DHT22;2585;48.696;10.066;2024-03-08T02:21:05;0.30;86.60
5134;DHT22;2585;48.696;10.066;2024-03-08T02:23:33;0.30;86.70
5134;DHT22;2585;48.696;10.066;2024-03-08T02:26:06;0.30;86.60
5134;DHT22;2585;48.696;10.066;2024-03-08T02:28:34;0.20;86.70
5134;DHT22;2585;48.696;10.066;2024-03-08T02:31:00;0.20;86.80
5134;DHT22;2585;48.696;10.066;2024-03-08T02:33:28;0.20;86.90
5134;DHT22;2585;48.696;10.066;2024-03-08T02:35:55;0.20;87.20
5134;DHT22;2585;48.696;10.066;2024-03-08T02:38:23;0.20;87.70
5134;DHT22;2585;48.696;10.066;2024-03-08T02:40:53;0.20;88.10
5134;DHT22;2585;48.696;10.066;2024-03-08T02:43:21;0.20;88.20
5134;DHT22;2585;48.696;10.066;2024-03-08T02:45:51;0.20;88.30
5134;DHT22;2585;48.696;10.066;2024-03-08T02:48:22;0.20;88.30
5134;DHT22;2585;48.696;10.066;2024-03-08T02:50:50;0.20;88.50
5134;DHT22;2585;48.696;10.066;2024-03-08T02:53:18;0.20;88.90
5134;DHT22;2585;48.696;10.066;2024-03-08T02:55:45;0.20;89.00
5134;DHT22;2585;48.696;10.066;2024-03-08T02:58:13;0.20;89.10
5134;DHT22;2585;48.696;10.066;2024-03-08T03:00:41;0.10;89.20
5134;DHT22;2585;48.696;10.066;2024-03-08T03:03:08;0.10;89.30
5134;DHT22;2585;48.696;10.066;2024-03-08T03:05:36;0.00;89.30
5134;DHT22;2585;48.696;10.066;2024-03-08T03:08:03;0.00;89.40
5134;DHT22;2585;48.696;10.066;2024-03-08T03:10:36;0.00;89.80
5134;DHT22;2585;48.696;10.066;2024-03-08T03:13:03;0.00;90.00
5134;DHT22;2585;48.696;10.066;2024-03-08T03:15:31;0.10;90.20
5134;DHT22;2585;48.696;10.066;2024-03-08T03:18:00;0.00;90.20
5134;DHT22;2585;48.696;10.066;2024-03-08T03:20:27;0.00;90.20
5134;DHT22;2585;48.696;10.066;2024-03-08T03:22:59;0.10;90.40
5134;DHT22;2585;48.696;10.066;2024-03-08T03:25:30;0.10;90.40
5134;DHT22;2585;48.696;10.066;2024-03-08T03:28:03;0.10;90.50
5134;DHT22;2585;48.696;10.066;2024-03-08T03:30:31;0.10;90.60
5134;DHT22;2585;48.696;10.066;2024-03-08T03:33:00;0.20;90.70
5134;DHT22;2585;48.696;10.066;2024-03-08T03:35:33;0.20;90.70
5134;DHT22;2585;48.696;10.066;2024-03-08T03:38:00;0.30;90.80
5134;DHT22;2585;48.696;10.066;2024-03-08T03:40:38;0.30;90.90
5134;DHT22;2585;48.696;10.066;2024-03-08T03:43:06;0.30;90.90
5134;DHT22;2585;48.696;10.066;2024-03-08T03:45:34;0.40;90.90
5134;DHT22;2585;48.696;10.066;2024-03-08T03:48:07;0.40;90.90
5134;DHT22;2585;48.696;10.066;2024-03-08T03:50:37;0.40;91.00
5134;DHT22;2585;48.696;10.066;2024-03-08T03:53:05;0.50;91.10
5134;DHT22;2585;48.696;10.066;2024-03-08T03:55:37;0.50;91.10
5134;DHT22;2585;48.696;10.066;2024-03-08T03:58:07;0.50;91.10
5134;DHT22;2585;48.696;10.066;2024-03-08T04:00:36;0.50;91.10
5134;DHT22;2585;48.696;10.066;2024-03-08T04:03:03;0.50;91.10
5134;DHT22;2585;48.696;10.066;2024-03-08T04:05:29;0.50;91.20
5134;DHT22;2585;48.696;10.066;2024-03-08T04:07:57;0.50;91.20
5134;DHT22;2585;48.696;10.066;2024-03-08T04:10:24;0.50;91.20
5134;DHT22;2585;48.696;10.066;2024-03-08T04:12:51;0.50;91.20
5134;DHT22;2585;48.696;10.066;2024-03-08T04:15:19;0.50;91.20
5134;DHT22;2585;48.696;10.066;2024-03-08T04:17:47;0.60;91.30
5134;DHT22;2585;48.696;10.066;2024-03-08T04:20:14;0.60;91.30
5134;DHT22;2585;48.696;10.066;2024-03-08T04:22:41;0.60;91.30
5134;DHT22;2585;48.696;10.066;2024-03-08T04:25:10;0.50;91.20
5134;DHT22;2585;48.696;10.066;2024-03-08T04:27:37;0.50;91.10
5134;DHT22;2585;48.696;10.066;2024-03-08T04:30:05;0.60;91.20
5134;DHT22;2585;48.696;10.066;2024-03-08T04:32:34;0.60;91.30
5134;DHT22;2585;48.696;10.066;2024-03-08T04:35:02;0.50;91.20
5134;DHT22;2585;48.696;10.066;2024-03-08T04:37:30;0.60;91.20
5134;DHT22;2585;48.696;10.066;2024-03-08T04:39:57;0.60;91.30
5134;DHT22;2585;48.696;10.066;2024-03-08T04:42:24;0.60;91.30
5134;DHT22;2585;48.696;10.066;2024-03-08T04:44:52;0.60;91.30
5134;DHT22;2585;48.696;10.066;2024-03-08T04:47:20;0.60;91.30
5134;DHT22;2585;48.696;10.066;2024-03-08T04:49:47;0.50;91.30
5134;DHT22;2585;48.696;10.066;2024-03-08T04:52:14;0.50;91.30
5134;DHT22;2585;48.696;10.066;2024-03-08T04:54:41;0.50;91.30
5134;DHT22;2585;48.696;10.066;2024-03-08T04:57:07;0.50;91.30
5134;DHT22;2585;48.696;10.066;2024-03-08T04:59:35;0.50;91.30
5134;DHT22;2585;48.696;10.066;2024-03-08T05:02:03;0.50;91.30
5134;DHT22;2585;48.696;10.066;2024-03-08T05:04:30;0.50;91.40
5134;DHT22;2585;48.696;10.066;2024-03-08T05:06:56;0.50;91.40
5134;DHT22;2585;48.696;10.066;2024-03-08T05:09:23;0.50;91.30
5134;DHT22;2585;48.696;10.066;2024-03-08T05:11:50;0.50;91.30
5134;DHT22;2585;48.696;10.066;2024-03-08T05:14:18;0.50;91.30
5134;DHT22;2585;48.696;10.066;2024-03-08T05:16:47;0.50;91.30
5134;DHT22;2585;48.696;10.066;2024-03-08T05:19:19;0.50;91.30
5134;DHT22;2585;48.696;10.066;2024-03-08T05:21:47;0.50;91.30
5134;DHT22;2585;48.696;10.066;2024-03-08T05:24:15;0.40;91.30
5134;DHT22;2585;48.696;10.066;2024-03-08T05:26:43;0.40;91.40
5134;DHT22;2585;48.696;10.066;2024-03-08T05:29:10;0.40;91.40
5134;DHT22;2585;48.696;10.066;2024-03-08T05:31:47;0.40;91.40
5134;DHT22;2585;48.696;10.066;2024-03-08T05:34:16;0.40;91.50
5134;DHT22;2585;48.696;10.066;2024-03-08T05:36:43;0.40;91.50
5134;DHT22;2585;48.696;10.066;2024-03-08T05:39:15;0.40;91.50
5134;DHT22;2585;48.696;10.066;2024-03-08T05:41:43;0.40;91.60
5134;DHT22;2585;48.696;10.066;2024-03-08T05:44:10;0.40;91.60
5134;DHT22;2585;48.696;10.066;2024-03-08T05:46:37;0.30;91.60
5134;DHT22;2585;48.696;10.066;2024-03-08T05:49:05;0.40;91.70
5134;DHT22;2585;48.696;10.066;2024-03-08T05:51:35;0.40;91.70
5134;DHT22;2585;48.696;10.066;2024-03-08T05:54:03;0.40;91.80
5134;DHT22;2585;48.696;10.066;2024-03-08T05:56:33;0.40;91.90
5134;DHT22;2585;48.696;10.066;2024-03-08T05:59:00;0.40;91.90
5134;DHT22;2585;48.696;10.066;2024-03-08T06:01:27;0.40;91.80
5134;DHT22;2585;48.696;10.066;2024-03-08T06:03:56;0.40;91.80
5134;DHT22;2585;48.696;10.066;2024-03-08T06:06:24;0.40;91.80
5134;DHT22;2585;48.696;10.066;2024-03-08T06:08:51;0.30;91.80
5134;DHT22;2585;48.696;10.066;2024-03-08T06:11:19;0.30;91.80
5134;DHT22;2585;48.696;10.066;2024-03-08T06:13:47;0.30;91.70
5134;DHT22;2585;48.696;10.066;2024-03-08T06:16:14;0.30;91.70
5134;DHT22;2585;48.696;10.066;2024-03-08T06:18:41;0.30;91.70
5134;DHT22;2585;48.696;10.066;2024-03-08T06:21:08;0.30;91.80
5134;DHT22;2585;48.696;10.066;2024-03-08T06:23:38;0.30;91.80
5134;DHT22;2585;48.696;10.066;2024-03-08T06:26:05;0.30;91.80
5134;DHT22;2585;48.696;10.066;2024-03-08T06:28:32;0.20;91.70
5134;DHT22;2585;48.696;10.066;2024-03-08T06:30:59;0.20;91.70
5134;DHT22;2585;48.696;10.066;2024-03-08T06:33:27;0.20;91.80
5134;DHT22;2585;48.696;10.066;2024-03-08T06:35:57;0.20;91.80
5134;DHT22;2585;48.696;10.066;2024-03-08T06:38:24;0.20;91.90
5134;DHT22;2585;48.696;10.066;2024-03-08T06:40:52;0.20;91.90
5134;DHT22;2585;48.696;10.066;2024-03-08T06:43:19;0.20;91.90
5134;DHT22;2585;48.696;10.066;2024-03-08T06:45:46;0.20;92.00
5134;DHT22;2585;48.696;10.066;2024-03-08T06:48:17;0.20;92.00
5134;DHT22;2585;48.696;10.066;2024-03-08T06:50:49;0.30;92.10
5134;DHT22;2585;48.696;10.066;2024-03-08T06:53:17;0.20;92.00
5134;DHT22;2585;48.696;10.066;2024-03-08T06:55:52;0.20;92.00
5134;DHT22;2585;48.696;10.066;2024-03-08T06:58:21;0.20;92.10
5134;DHT22;2585;48.696;10.066;2024-03-08T07:00:48;0.30;92.10
5134;DHT22;2585;48.696;10.066;2024-03-08T07:03:19;0.20;92.10
5134;DHT22;2585;48.696;10.066;2024-03-08T07:05:46;0.30;92.10
5134;DHT22;2585;48.696;10.066;2024-03-08T07:08:13;0.20;92.00
5134;DHT22;2585;48.696;10.066;2024-03-08T07:10:40;0.30;92.10
5134;DHT22;2585;48.696;10.066;2024-03-08T07:13:11;0.30;92.10
5134;DHT22;2585;48.696;10.066;2024-03-08T07:15:38;0.30;92.10
5134;DHT22;2585;48.696;10.066;2024-03-08T07:18:06;0.30;92.00
5134;DHT22;2585;48.696;10.066;2024-03-08T07:20:35;0.30;92.00
5134;DHT22;2585;48.696;10.066;2024-03-08T07:23:03;0.30;92.00
5134;DHT22;2585;48.696;10.066;2024-03-08T07:25:30;0.30;92.00
5134;DHT22;2585;48.696;10.066;2024-03-08T07:27:57;0.40;92.00
5134;DHT22;2585;48.696;10.066;2024-03-08T07:30:25;0.40;92.00
5134;DHT22;2585;48.696;10.066;2024-03-08T07:33:11;0.40;91.90
5134;DHT22;2585;48.696;10.066;2024-03-08T07:35:39;0.40;91.90
5134;DHT22;2585;48.696;10.066;2024-03-08T07:38:07;0.40;92.00
5134;DHT22;2585;48.696;10.066;2024-03-08T07:40:36;0.50;92.00
5134;DHT22;2585;48.696;10.066;2024-03-08T07:43:07;0.50;92.10
5134;DHT22;2585;48.696;10.066;2024-03-08T07:45:34;0.50;92.00
5134;DHT22;2585;48.696;10.066;2024-03-08T07:48:03;0.60;92.10
5134;DHT22;2585;48.696;10.066;2024-03-08T07:50:30;0.50;92.00
5134;DHT22;2585;48.696;10.066;2024-03-08T07:52:59;0.60;92.00
5134;DHT22;2585;48.696;10.066;2024-03-08T07:55:28;0.60;92.00
5134;DHT22;2585;48.696;10.066;2024-03-08T07:57:55;0.60;92.00
5134;DHT22;2585;48.696;10.066;2024-03-08T08:00:22;0.70;92.00
5134;DHT22;2585;48.696;10.066;2024-03-08T08:02:50;0.70;92.00
5134;DHT22;2585;48.696;10.066;2024-03-08T08:05:17;0.70;91.90
5134;DHT22;2585;48.696;10.066;2024-03-08T08:07:45;0.70;91.80
5134;DHT22;2585;48.696;10.066;2024-03-08T08:10:16;0.70;91.80
5134;DHT22;2585;48.696;10.066;2024-03-08T08:12:49;0.70;91.90
5134;DHT22;2585;48.696;10.066;2024-03-08T08:15:16;0.80;92.00
5134;DHT22;2585;48.696;10.066;2024-03-08T08:17:44;0.80;91.90
5134;DHT22;2585;48.696;10.066;2024-03-08T08:20:12;0.80;91.70
5134;DHT22;2585;48.696;10.066;2024-03-08T08:22:39;0.80;91.70
5134;DHT22;2585;48.696;10.066;2024-03-08T08:25:07;0.90;91.80
5134;DHT22;2585;48.696;10.066;2024-03-08T08:27:35;0.80;91.60
5134;DHT22;2585;48.696;10.066;2024-03-08T08:30:05;0.90;91.60
5134;DHT22;2585;48.696;10.066;2024-03-08T08:32:39;0.90;91.60
5134;DHT22;2585;48.696;10.066;2024-03-08T08:35:06;1.00;91.60
5134;DHT22;2585;48.696;10.066;2024-03-08T08:37:34;1.10;91.60
5134;DHT22;2585;48.696;10.066;2024-03-08T08:40:04;1.10;91.50
5134;DHT22;2585;48.696;10.066;2024-03-08T08:42:40;1.10;91.30
5134;DHT22;2585;48.696;10.066;2024-03-08T08:45:08;1.10;91.10
5134;DHT22;2585;48.696;10.066;2024-03-08T08:47:46;1.20;91.10
5134;DHT22;2585;48.696;10.066;2024-03-08T08:50:14;1.20;91.10
5134;DHT22;2585;48.696;10.066;2024-03-08T08:52:40;1.30;91.20
5134;DHT22;2585;48.696;10.066;2024-03-08T08:55:10;1.30;91.00
5134;DHT22;2585;48.696;10.066;2024-03-08T08:57:41;1.30;90.90
5134;DHT22;2585;48.696;10.066;2024-03-08T09:00:09;1.30;90.70
5134;DHT22;2585;48.696;10.066;2024-03-08T09:02:41;1.40;90.60
5134;DHT22;2585;48.696;10.066;2024-03-08T09:05:09;1.40;90.30
5134;DHT22;2585;48.696;10.066;2024-03-08T09:07:35;1.40;90.50
5134;DHT22;2585;48.696;10.066;2024-03-08T09:10:08;1.50;90.50
5134;DHT22;2585;48.696;10.066;2024-03-08T09:12:39;1.60;90.70
5134;DHT22;2585;48.696;10.066;2024-03-08T09:15:07;1.60;90.60
5134;DHT22;2585;48.696;10.066;2024-03-08T09:17:44;1.80;90.60
5134;DHT22;2585;48.696;10.066;2024-03-08T09:20:11;1.80;90.40
5134;DHT22;2585;48.696;10.066;2024-03-08T09:22:45;1.80;89.80
5134;DHT22;2585;48.696;10.066;2024-03-08T09:25:12;1.80;89.70
5134;DHT22;2585;48.696;10.066;2024-03-08T09:27:39;1.80;89.20
5134;DHT22;2585;48.696;10.066;2024-03-08T09:30:07;1.90;88.50
5134;DHT22;2585;48.696;10.066;2024-03-08T09:32:34;1.90;88.40
5134;DHT22;2585;48.696;10.066;2024-03-08T09:35:02;2.00;88.40
5134;DHT22;2585;48.696;10.066;2024-03-08T09:37:29;2.00;87.70
5134;DHT22;2585;48.696;10.066;2024-03-08T09:39:56;2.10;87.30
5134;DHT22;2585;48.696;10.066;2024-03-08T09:42:24;2.10;85.70
5134;DHT22;2585;48.696;10.066;2024-03-08T09:44:51;2.20;83.50
5134;DHT22;2585;48.696;10.066;2024-03-08T09:47:18;2.20;81.90
5134;DHT22;2585;48.696;10.066;2024-03-08T09:49:45;2.30;82.10
5134;DHT22;2585;48.696;10.066;2024-03-08T09:52:13;2.30;75.40
5134;DHT22;2585;48.696;10.066;2024-03-08T09:54:40;2.40;76.30
5134;DHT22;2585;48.696;10.066;2024-03-08T09:57:10;2.40;74.90
5134;DHT22;2585;48.696;10.066;2024-03-08T09:59:37;2.40;70.50
5134;DHT22;2585;48.696;10.066;2024-03-08T10:02:04;2.40;73.00
5134;DHT22;2585;48.696;10.066;2024-03-08T10:04:32;2.40;71.40
5134;DHT22;2585;48.696;10.066;2024-03-08T10:07:01;2.40;71.70
5134;DHT22;2585;48.696;10.066;2024-03-08T10:09:28;2.40;71.90
5134;DHT22;2585;48.696;10.066;2024-03-08T10:11:58;2.60;76.10
5134;DHT22;2585;48.696;10.066;2024-03-08T10:14:25;2.60;74.20
5134;DHT22;2585;48.696;10.066;2024-03-08T10:16:53;2.60;72.60
5134;DHT22;2585;48.696;10.066;2024-03-08T10:19:21;2.80;74.40
5134;DHT22;2585;48.696;10.066;2024-03-08T10:21:51;2.90;71.40
5134;DHT22;2585;48.696;10.066;2024-03-08T10:24:20;3.10;71.10
5134;DHT22;2585;48.696;10.066;2024-03-08T10:26:47;3.20;67.10
5134;DHT22;2585;48.696;10.066;2024-03-08T10:29:14;3.10;57.30
5134;DHT22;2585;48.696;10.066;2024-03-08T10:31:44;3.10;41.70
5134;DHT22;2585;48.696;10.066;2024-03-08T10:34:11;3.30;38.60
5134;DHT22;2585;48.696;10.066;2024-03-08T10:36:41;3.20;20.50
5134;DHT22;2585;48.696;10.066;2024-03-08T10:39:22;3.20;31.60
5134;DHT22;2585;48.696;10.066;2024-03-08T10:41:53;3.40;29.60
5134;DHT22;2585;48.696;10.066;2024-03-08T10:44:32;3.50;21.00
5134;DHT22;2585;48.696;10.066;2024-03-08T10:47:49;3.60;6.50
5134;DHT22;2585;48.696;10.066;2024-03-08T10:50:05;3.70;9.20
5134;DHT22;2585;48.696;10.066;2024-03-08T10:52:36;3.60;1.00
5134;DHT22;2585;48.696;10.066;2024-03-08T10:55:04;3.70;5.40
5134;DHT22;2585;48.696;10.066;2024-03-08T10:57:35;3.90;8.50
5134;DHT22;2585;48.696;10.066;2024-03-08T11:00:06;4.10;1.10
5134;DHT22;2585;48.696;10.066;2024-03-08T11:02:36;4.20;1.00
5134;DHT22;2585;48.696;10.066;2024-03-08T11:05:10;4.20;1.00
5134;DHT22;2585;48.696;10.066;2024-03-08T11:07:42;4.40;1.00
5134;DHT22;2585;48.696;10.066;2024-03-08T11:10:19;4.80;1.00
5134;DHT22;2585;48.696;10.066;2024-03-08T11:12:46;4.70;92.60
5134;DHT22;2585;48.696;10.066;2024-03-08T11:15:14;4.80;89.60
5134;DHT22;2585;48.696;10.066;2024-03-08T11:17:49;5.10;1.00
5134;DHT22;2585;48.696;10.066;2024-03-08T11:20:17;5.50;91.70
5134;DHT22;2585;48.696;10.066;2024-03-08T11:23:01;5.80;78.70
5134;DHT22;2585;48.696;10.066;2024-03-08T11:25:41;6.10;21.20
5134;DHT22;2585;48.696;10.066;2024-03-08T11:28:14;6.30;1.00
5134;DHT22;2585;48.696;10.066;2024-03-08T11:33:33;6.00;1.00
5134;DHT22;2585;48.696;10.066;2024-03-08T11:38:44;7.30;91.10
5134;DHT22;2585;48.696;10.066;2024-03-08T11:41:11;7.90;1.00
5134;DHT22;2585;48.696;10.066;2024-03-08T11:43:45;7.90;65.30
5134;DHT22;2585;48.696;10.066;2024-03-08T11:46:14;7.60;1.00
5134;DHT22;2585;48.696;10.066;2024-03-08T11:48:42;7.70;1.00
5134;DHT22;2585;48.696;10.066;2024-03-08T11:51:11;8.50;6.30
5134;DHT22;2585;48.696;10.066;2024-03-08T11:53:39;8.40;1.00
5134;DHT22;2585;48.696;10.066;2024-03-08T11:56:12;8.20;71.10
5134;DHT22;2585;48.696;10.066;2024-03-08T11:58:40;8.20;88.40
5134;DHT22;2585;48.696;10.066;2024-03-08T12:01:11;8.50;68.90
5134;DHT22;2585;48.696;10.066;2024-03-08T12:03:42;8.10;39.00
5134;DHT22;2585;48.696;10.066;2024-03-08T12:06:10;7.80;4.10
5134;DHT22;2585;48.696;10.066;2024-03-08T12:08:37;8.40;22.50
5134;DHT22;2585;48.696;10.066;2024-03-08T12:11:04;8.60;1.00
5134;DHT22;2585;48.696;10.066;2024-03-08T12:13:32;9.10;1.00
5134;DHT22;2585;48.696;10.066;2024-03-08T12:16:03;9.00;1.00
5134;DHT22;2585;48.696;10.066;2024-03-08T12:18:35;8.70;1.00
5134;DHT22;2585;48.696;10.066;2024-03-08T12:21:06;9.40;1.00
5134;DHT22;2585;48.696;10.066;2024-03-08T12:23:38;9.70;1.00
5134;DHT22;2585;48.696;10.066;2024-03-08T12:26:23;9.20;85.40
5134;DHT22;2585;48.696;10.066;2024-03-08T12:28:51;9.90;1.00
5134;DHT22;2585;48.696;10.066;2024-03-08T12:31:18;9.50;64.80
5134;DHT22;2585;48.696;10.066;2024-03-08T12:36:22;10.30;74.80
5134;DHT22;2585;48.696;10.066;2024-03-08T12:38:49;10.60;60.70
5134;DHT22;2585;48.696;10.066;2024-03-08T12:41:16;10.90;62.50
5134;DHT22;2585;48.696;10.066;2024-03-08T12:43:47;10.90;1.00
5134;DHT22;2585;48.696;10.066;2024-03-08T12:46:18;10.50;1.00
5134;DHT22;2585;48.696;10.066;2024-03-08T12:48:48;10.90;1.00
5134;DHT22;2585;48.696;10.066;2024-03-08T12:51:18;11.00;1.00
5134;DHT22;2585;48.696;10.066;2024-03-08T12:53:45;11.00;1.00
5134;DHT22;2585;48.696;10.066;2024-03-08T12:56:14;10.80;88.60
5134;DHT22;2585;48.696;10.066;2024-03-08T12:58:44;11.00;90.20
5134;DHT22;2585;48.696;10.066;2024-03-08T13:01:11;10.70;76.50
5134;DHT22;2585;48.696;10.066;2024-03-08T13:03:41;10.30;70.60
5134;DHT22;2585;48.696;10.066;2024-03-08T13:06:10;10.60;69.40
5134;DHT22;2585;48.696;10.066;2024-03-08T13:08:40;10.70;69.20
5134;DHT22;2585;48.696;10.066;2024-03-08T13:11:07;11.00;66.20
5134;DHT22;2585;48.696;10.066;2024-03-08T13:13:34;10.70;27.50
5134;DHT22;2585;48.696;10.066;2024-03-08T13:16:07;11.00;19.80
5134;DHT22;2585;48.696;10.066;2024-03-08T13:18:36;10.70;1.00
5134;DHT22;2585;48.696;10.066;2024-03-08T13:21:05;10.50;1.00
5134;DHT22;2585;48.696;10.066;2024-03-08T13:23:34;10.50;1.00
5134;DHT22;2585;48.696;10.066;2024-03-08T13:26:16;11.00;1.00
5134;DHT22;2585;48.696;10.066;2024-03-08T13:28:45;11.00;1.00
5134;DHT22;2585;48.696;10.066;2024-03-08T13:31:12;10.60;1.00
5134;DHT22;2585;48.696;10.066;2024-03-08T13:33:40;10.60;1.00
5134;DHT22;2585;48.696;10.066;2024-03-08T13:36:09;10.50;1.00
5134;DHT22;2585;48.696;10.066;2024-03-08T13:38:47;10.50;1.00
5134;DHT22;2585;48.696;10.066;2024-03-08T13:41:15;10.90;1.00
5134;DHT22;2585;48.696;10.066;2024-03-08T13:43:46;11.30;1.00
5134;DHT22;2585;48.696;10.066;2024-03-08T13:46:16;11.00;91.10
5134;DHT22;2585;48.696;10.066;2024-03-08T13:48:44;11.30;91.40
5134;DHT22;2585;48.696;10.066;2024-03-08T13:51:11;10.80;85.70
5134;DHT22;2585;48.696;10.066;2024-03-08T13:53:39;11.20;86.00
5134;DHT22;2585;48.696;10.066;2024-03-08T13:56:07;11.10;79.80
5134;DHT22;2585;48.696;10.066;2024-03-08T13:58:38;10.90;75.20
5134;DHT22;2585;48.696;10.066;2024-03-08T14:01:07;11.20;75.20
5134;DHT22;2585;48.696;10.066;2024-03-08T14:03:39;11.10;72.30
5134;DHT22;2585;48.696;10.066;2024-03-08T14:06:09;11.10;66.70
5134;DHT22;2585;48.696;10.066;2024-03-08T14:08:51;10.90;64.50
5134;DHT22;2585;48.696;10.066;2024-03-08T14:11:18;11.10;62.30
5134;DHT22;2585;48.696;10.066;2024-03-08T14:13:46;10.90;42.10
5134;DHT22;2585;48.696;10.066;2024-03-08T14:16:13;11.20;41.90
5134;DHT22;2585;48.696;10.066;2024-03-08T14:18:40;11.20;30.40
5134;DHT22;2585;48.696;10.066;2024-03-08T14:21:08;11.30;25.80
5134;DHT22;2585;48.696;10.066;2024-03-08T14:23:35;11.20;13.10
5134;DHT22;2585;48.696;10.066;2024-03-08T14:26:06;11.20;6.60
5134;DHT22;2585;48.696;10.066;2024-03-08T14:28:35;11.20;1.00
5134;DHT22;2585;48.696;10.066;2024-03-08T14:31:01;11.10;1.00
5134;DHT22;2585;48.696;10.066;2024-03-08T14:33:33;11.20;1.00
5134;DHT22;2585;48.696;10.066;2024-03-08T14:36:00;11.00;1.00
5134;DHT22;2585;48.696;10.066;2024-03-08T14:38:27;10.50;1.00
5134;DHT22;2585;48.696;10.066;2024-03-08T14:40:57;10.40;1.00
5134;DHT22;2585;48.696;10.066;2024-03-08T14:43:23;10.10;1.00
5134;DHT22;2585;48.696;10.066;2024-03-08T14:45:51;10.10;1.00
5134;DHT22;2585;48.696;10.066;2024-03-08T14:48:19;10.10;1.00
5134;DHT22;2585;48.696;10.066;2024-03-08T14:50:45;10.10;1.00
5134;DHT22;2585;48.696;10.066;2024-03-08T14:53:14;10.30;1.00
5134;DHT22;2585;48.696;10.066;2024-03-08T14:55:43;10.20;1.00
5134;DHT22;2585;48.696;10.066;2024-03-08T14:58:13;10.00;1.00
5134;DHT22;2585;48.696;10.066;2024-03-08T15:00:41;9.90;1.00
5134;DHT22;2585;48.696;10.066;2024-03-08T15:03:08;9.80;1.00
5134;DHT22;2585;48.696;10.066;2024-03-08T15:05:48;9.60;1.00
5134;DHT22;2585;48.696;10.066;2024-03-08T15:08:20;9.40;1.00
5134;DHT22;2585;48.696;10.066;2024-03-08T15:10:49;9.30;1.00
5134;DHT22;2585;48.696;10.066;2024-03-08T15:13:27;9.30;1.00
5134;DHT22;2585;48.696;10.066;2024-03-08T15:16:10;9.10;1.00
5134;DHT22;2585;48.696;10.066;2024-03-08T15:18:44;9.20;1.00
5134;DHT22;2585;48.696;10.066;2024-03-08T15:21:18;9.20;1.00
5134;DHT22;2585;48.696;10.066;2024-03-08T15:23:48;9.10;1.00
5134;DHT22;2585;48.696;10.066;2024-03-08T15:26:19;9.00;1.00
5134;DHT22;2585;48.696;10.066;2024-03-08T15:28:46;8.80;1.00
5134;DHT22;2585;48.696;10.066;2024-03-08T15:31:17;8.70;1.00
5134;DHT22;2585;48.696;10.066;2024-03-08T15:33:47;8.70;1.00
5134;DHT22;2585;48.696;10.066;2024-03-08T15:36:25;8.60;1.00
5134;DHT22;2585;48.696;10.066;2024-03-08T15:38:55;8.60;1.00
5134;DHT22;2585;48.696;10.066;2024-03-08T15:41:22;8.60;1.00
5134;DHT22;2585;48.696;10.066;2024-03-08T15:43:49;8.50;91.00
5134;DHT22;2585;48.696;10.066;2024-03-08T15:46:16;8.50;90.20
5134;DHT22;2585;48.696;10.066;2024-03-08T15:48:43;8.40;90.20
5134;DHT22;2585;48.696;10.066;2024-03-08T15:51:10;8.40;90.30
5134;DHT22;2585;48.696;10.066;2024-03-08T15:53:38;8.30;88.20
5134;DHT22;2585;48.696;10.066;2024-03-08T15:56:05;8.30;87.40
5134;DHT22;2585;48.696;10.066;2024-03-08T15:58:33;8.20;87.00
5134;DHT22;2585;48.696;10.066;2024-03-08T16:01:03;8.20;85.50
5134;DHT22;2585;48.696;10.066;2024-03-08T16:03:33;8.20;83.90
5134;DHT22;2585;48.696;10.066;2024-03-08T16:06:00;8.20;85.00
5134;DHT22;2585;48.696;10.066;2024-03-08T16:08:27;8.10;84.70
5134;DHT22;2585;48.696;10.066;2024-03-08T16:10:54;8.00;83.40
5134;DHT22;2585;48.696;10.066;2024-03-08T16:13:23;8.00;83.00
5134;DHT22;2585;48.696;10.066;2024-03-08T16:15:52;8.00;81.90
5134;DHT22;2585;48.696;10.066;2024-03-08T16:18:19;7.90;83.10
5134;DHT22;2585;48.696;10.066;2024-03-08T16:20:56;7.90;83.70